createdAt,value
2019-04-11T00:02:08.821Z,14.93
2019-04-11T00:04:35.122Z,15.00
2019-04-11T00:07:01.287Z,16.43
2019-04-11T00:09:27.517Z,15.93
2019-04-11T00:11:54.430Z,15.37
2019-04-11T00:14:21.990Z,15.57
2019-04-11T00:16:49.756Z,15.20
2019-04-11T00:19:16.129Z,16.03
2019-04-11T00:21:42.386Z,16.23
2019-04-11T00:24:08.619Z,15.73
2019-04-11T00:26:36.078Z,16.17
2019-04-11T00:29:03.847Z,16.33
2019-04-11T00:31:30.653Z,16.93
2019-04-11T00:33:57.011Z,15.53
2019-04-11T00:36:24.215Z,16.57
2019-04-11T00:38:50.637Z,14.83
2019-04-11T00:41:17.586Z,17.40
2019-04-11T00:43:45.359Z,16.10
2019-04-11T00:46:12.001Z,14.83
2019-04-11T00:48:38.224Z,16.43
2019-04-11T00:51:04.619Z,14.00
2019-04-11T00:53:31.030Z,13.77
2019-04-11T00:55:57.217Z,13.30
2019-04-11T00:58:23.561Z,14.30
2019-04-11T01:00:51.312Z,14.60
2019-04-11T01:03:17.961Z,14.10
2019-04-11T01:05:44.329Z,14.47
2019-04-11T01:08:11.500Z,15.23
2019-04-11T01:10:37.938Z,15.67
2019-04-11T01:13:05.079Z,15.90
2019-04-11T01:15:36.467Z,14.83
2019-04-11T01:18:03.622Z,14.83
2019-04-11T01:20:29.984Z,15.20
2019-04-11T01:22:56.455Z,15.00
2019-04-11T01:25:22.905Z,15.73
2019-04-11T01:27:50.004Z,14.50
2019-04-11T01:30:18.626Z,14.10
2019-04-11T01:32:44.848Z,14.30
2019-04-11T01:35:13.060Z,14.60
2019-04-11T01:37:39.852Z,13.70
2019-04-11T01:40:07.664Z,13.53
2019-04-11T01:42:34.059Z,15.53
2019-04-11T01:45:01.068Z,14.17
2019-04-11T01:47:32.982Z,14.07
2019-04-11T01:49:59.287Z,13.27
2019-04-11T01:52:26.529Z,14.33
2019-04-11T01:54:52.946Z,15.43
2019-04-11T01:57:20.053Z,14.97
2019-04-11T01:59:46.500Z,14.63
2019-04-11T02:02:23.864Z,14.30
2019-04-11T02:04:55.066Z,13.00
2019-04-11T02:07:21.250Z,14.07
2019-04-11T02:09:48.467Z,13.70
2019-04-11T02:12:16.259Z,14.03
2019-04-11T02:14:43.823Z,13.37
2019-04-11T02:17:10.431Z,12.67
2019-04-11T02:19:36.804Z,13.43
2019-04-11T02:22:06.327Z,14.00
2019-04-11T02:24:36.192Z,13.37
2019-04-11T02:27:04.583Z,13.90
2019-04-11T02:29:30.832Z,13.20
2019-04-11T02:31:59.419Z,14.30
2019-04-11T02:34:25.433Z,13.83
2019-04-11T02:36:53.554Z,12.87
2019-04-11T02:39:20.916Z,11.47
2019-04-11T02:41:48.221Z,11.30
2019-04-11T02:44:32.052Z,11.37
2019-04-11T02:46:53.028Z,10.07
2019-04-11T02:49:10.873Z,10.03
2019-04-11T02:51:38.726Z,9.90
2019-04-11T02:54:07.023Z,11.77
2019-04-11T02:56:35.754Z,12.57
2019-04-11T02:59:03.040Z,12.33
2019-04-11T03:01:31.944Z,12.70
2019-04-11T03:03:59.141Z,12.10
2019-04-11T03:06:26.458Z,11.97
2019-04-11T03:08:55.032Z,11.47
2019-04-11T03:11:21.900Z,11.67
2019-04-11T03:13:54.659Z,11.50
2019-04-11T03:16:32.849Z,11.83
2019-04-11T03:19:08.473Z,10.27
2019-04-11T03:21:21.621Z,11.53
2019-04-11T03:23:46.787Z,11.97
2019-04-11T03:26:14.098Z,11.53
2019-04-11T03:28:46.267Z,12.60
2019-04-11T03:31:41.686Z,11.70
2019-04-11T03:36:59.924Z,11.40
2019-04-11T03:38:55.470Z,11.17
2019-04-11T03:41:20.409Z,11.37
2019-04-11T03:43:43.259Z,11.33
2019-04-11T03:46:20.295Z,12.20
2019-04-11T03:48:40.510Z,13.90
2019-04-11T03:51:02.470Z,13.10
2019-04-11T03:53:30.000Z,13.27
2019-04-11T03:56:01.498Z,12.43
2019-04-11T03:58:29.461Z,11.73
2019-04-11T04:00:59.440Z,11.90
2019-04-11T04:03:26.701Z,11.93
2019-04-11T04:05:55.120Z,11.37
2019-04-11T04:08:22.564Z,12.00
2019-04-11T04:11:03.993Z,10.50
2019-04-11T04:13:31.906Z,9.97
2019-04-11T04:16:12.145Z,10.90
2019-04-11T04:18:45.799Z,11.20
2019-04-11T04:21:17.458Z,12.20
2019-04-11T04:23:45.533Z,13.23
2019-04-11T04:26:14.679Z,12.30
2019-04-11T04:28:41.062Z,12.10
2019-04-11T04:31:09.142Z,13.10
2019-04-11T04:33:36.345Z,12.77
2019-04-11T04:36:07.693Z,13.97
2019-04-11T04:38:33.790Z,13.00
2019-04-11T04:41:16.727Z,11.37
2019-04-11T04:43:31.568Z,12.37
2019-04-11T04:46:17.320Z,13.30
2019-04-11T04:48:27.227Z,12.17
2019-04-11T04:50:56.824Z,10.93
2019-04-11T04:53:24.037Z,10.20
2019-04-11T04:55:52.207Z,10.33
2019-04-11T04:58:20.202Z,10.93
2019-04-11T05:00:48.443Z,11.43
2019-04-11T05:03:15.921Z,11.27
2019-04-11T05:05:42.502Z,12.03
2019-04-11T05:08:10.658Z,11.03
2019-04-11T05:10:38.181Z,11.93
2019-04-11T05:13:05.663Z,11.53
2019-04-11T05:15:32.452Z,12.63
2019-04-11T05:17:59.860Z,11.40
2019-04-11T05:20:26.190Z,11.10
2019-04-11T05:22:52.448Z,10.77
2019-04-11T05:25:18.580Z,12.30
2019-04-11T05:27:45.435Z,14.70
2019-04-11T05:30:11.805Z,13.97
2019-04-11T05:32:38.085Z,14.70
2019-04-11T05:35:05.031Z,15.27
2019-04-11T05:37:31.409Z,14.53
2019-04-11T05:39:58.587Z,13.30
2019-04-11T05:42:26.986Z,15.20
2019-04-11T05:44:53.018Z,14.77
2019-04-11T05:47:19.999Z,14.53
2019-04-11T05:50:01.066Z,14.37
2019-04-11T05:52:30.782Z,18.13
2019-04-11T05:54:58.464Z,16.87
2019-04-11T05:57:33.576Z,14.53
2019-04-11T05:59:54.816Z,15.83
2019-04-11T06:02:29.372Z,15.53
2019-04-11T06:04:57.794Z,17.60
2019-04-11T06:07:27.176Z,17.87
2019-04-11T06:09:56.517Z,18.47
2019-04-11T06:12:25.461Z,14.50
2019-04-11T06:14:53.653Z,15.07
2019-04-11T06:17:21.785Z,14.50
2019-04-11T06:19:53.562Z,18.03
2019-04-11T06:22:19.975Z,15.37
2019-04-11T06:24:50.846Z,15.90
2019-04-11T06:27:22.169Z,15.50
2019-04-11T06:29:56.037Z,16.03
2019-04-11T06:32:42.135Z,17.00
2019-04-11T06:35:26.138Z,17.53
2019-04-11T06:37:58.301Z,16.67
2019-04-11T06:40:27.717Z,18.50
2019-04-11T06:42:56.070Z,18.73
2019-04-11T06:45:41.781Z,17.67
2019-04-11T06:48:16.115Z,17.70
2019-04-11T06:50:44.283Z,16.77
2019-04-11T06:53:11.462Z,19.23
2019-04-11T06:55:42.695Z,16.83
2019-04-11T06:58:10.874Z,17.93
2019-04-11T07:00:39.158Z,19.10
2019-04-11T07:03:17.397Z,18.33
2019-04-11T07:05:39.146Z,18.10
2019-04-11T07:08:07.561Z,16.97
2019-04-11T07:10:38.962Z,18.10
2019-04-11T07:13:10.012Z,17.73
2019-04-11T07:15:38.141Z,18.07
2019-04-11T07:18:24.802Z,18.87
2019-04-11T07:20:56.300Z,17.90
2019-04-11T07:23:43.955Z,18.60
2019-04-11T07:26:27.333Z,18.17
2019-04-11T07:28:56.523Z,18.10
2019-04-11T07:31:25.453Z,16.97
2019-04-11T07:33:56.591Z,19.43
2019-04-11T07:36:41.509Z,18.40
2019-04-11T07:39:09.973Z,18.83
2019-04-11T07:41:39.258Z,18.23
2019-04-11T07:44:08.565Z,18.73
2019-04-11T07:46:53.705Z,19.57
2019-04-11T07:49:24.611Z,18.30
2019-04-11T07:51:52.805Z,19.03
2019-04-11T07:54:20.158Z,18.80
2019-04-11T07:56:57.246Z,18.00
2019-04-11T07:59:34.159Z,18.43
2019-04-11T08:02:18.733Z,19.40
2019-04-11T08:04:55.755Z,18.43
2019-04-11T08:07:26.625Z,17.73
2019-04-11T08:09:54.973Z,18.93
2019-04-11T08:12:25.845Z,19.60
2019-04-11T08:14:55.044Z,19.12
2019-04-11T08:17:35.512Z,19.30
2019-04-11T08:19:55.874Z,18.52
2019-04-11T08:22:36.135Z,18.47
2019-04-11T08:25:22.940Z,18.85
2019-04-11T08:27:59.262Z,17.83
2019-04-11T08:30:22.476Z,19.10
2019-04-11T08:33:00.339Z,17.90
2019-04-11T08:35:37.620Z,17.20
2019-04-11T08:38:12.031Z,17.10
2019-04-11T08:40:42.964Z,18.35
2019-04-11T08:43:11.193Z,17.40
2019-04-11T08:45:54.278Z,17.48
2019-04-11T08:48:21.232Z,17.70
2019-04-11T08:50:58.859Z,17.35
2019-04-11T08:53:45.066Z,18.48
2019-04-11T08:56:12.864Z,19.15
2019-04-11T08:58:46.948Z,19.27
2019-04-11T09:01:18.253Z,17.42
2019-04-11T09:04:07.355Z,17.77
2019-04-11T09:06:32.858Z,16.87
2019-04-11T09:09:18.723Z,15.55
2019-04-11T09:11:47.155Z,14.65
2019-04-11T09:14:32.505Z,16.20
2019-04-11T09:17:01.665Z,14.87
2019-04-11T09:19:47.294Z,16.48
2019-04-11T09:22:18.437Z,15.65
2019-04-11T09:25:03.419Z,16.23
2019-04-11T09:27:49.001Z,15.90
2019-04-11T09:30:17.527Z,13.78
2019-04-11T09:33:02.834Z,13.45
2019-04-11T09:35:39.961Z,14.68
2019-04-11T09:38:20.200Z,13.90
2019-04-11T09:40:52.105Z,15.60
2019-04-11T09:43:26.263Z,17.42
2019-04-11T09:45:57.696Z,18.42
2019-04-11T09:48:42.641Z,17.32
2019-04-11T09:51:11.439Z,19.52
2019-04-11T09:53:40.909Z,18.15
2019-04-11T09:56:21.063Z,15.40
2019-04-11T09:58:49.702Z,22.30
2019-04-11T10:01:18.219Z,17.40
2019-04-11T10:03:45.972Z,19.52
2019-04-11T10:06:19.746Z,19.48
2019-04-11T10:08:48.875Z,19.77
2019-04-11T10:11:30.338Z,18.85
2019-04-11T10:14:01.708Z,22.45
2019-04-11T10:16:29.888Z,21.70
2019-04-11T10:19:15.681Z,18.62
2019-04-11T10:21:56.441Z,19.57
2019-04-11T10:24:30.695Z,20.57
2019-04-11T10:27:14.336Z,22.90
2019-04-11T10:29:52.576Z,19.52
2019-04-11T10:32:23.671Z,18.70
2019-04-11T10:34:52.182Z,18.05
2019-04-11T10:37:20.256Z,16.35
2019-04-11T10:39:54.071Z,16.97
2019-04-11T10:42:22.181Z,23.20
2019-04-11T10:44:56.384Z,20.20
2019-04-11T10:47:25.020Z,16.15
2019-04-11T10:50:09.716Z,17.25
2019-04-11T10:52:38.380Z,20.60
2019-04-11T10:55:13.931Z,21.37
2019-04-11T10:57:44.788Z,17.90
2019-04-11T11:00:14.243Z,19.65
2019-04-11T11:02:49.391Z,19.62
2019-04-11T11:05:19.118Z,17.73
2019-04-11T11:07:47.343Z,17.00
2019-04-11T11:10:17.979Z,15.93
2019-04-11T11:13:02.846Z,19.40
2019-04-11T11:15:31.646Z,19.80
2019-04-11T11:18:44.041Z,17.15
2019-04-11T11:20:53.582Z,17.17
2019-04-11T11:23:33.705Z,20.23
2019-04-11T11:26:02.801Z,21.87
2019-04-11T11:28:36.736Z,17.62
2019-04-11T11:31:07.591Z,18.07
2019-04-11T11:33:34.841Z,16.20
2019-04-11T11:36:21.439Z,19.37
2019-04-11T11:38:55.856Z,19.73
2019-04-11T11:41:40.788Z,15.93
2019-04-11T11:44:09.748Z,20.60
2019-04-11T11:46:50.144Z,17.60
2019-04-11T11:49:36.280Z,17.70
2019-04-11T11:52:04.791Z,20.25
2019-04-11T11:54:35.732Z,23.60
2019-04-11T11:57:04.603Z,21.33
2019-04-11T11:59:32.875Z,22.50
2019-04-11T12:02:02.265Z,17.92
2019-04-11T12:04:35.306Z,22.15
2019-04-11T12:07:03.596Z,21.20
2019-04-11T12:09:34.242Z,16.05
2019-04-11T12:12:08.589Z,19.52
2019-04-11T12:14:53.795Z,21.80
2019-04-11T12:17:33.575Z,19.35
2019-04-11T12:20:06.490Z,19.85
2019-04-11T12:22:31.094Z,20.88
2019-04-11T12:24:59.259Z,21.15
2019-04-11T12:27:44.067Z,19.60
2019-04-11T12:30:27.954Z,20.75
2019-04-11T12:32:57.065Z,21.77
2019-04-11T12:35:26.276Z,24.05
2019-04-11T12:38:11.705Z,23.62
2019-04-11T12:40:42.708Z,23.05
2019-04-11T12:43:10.943Z,21.33
2019-04-11T12:45:57.293Z,21.50
2019-04-11T12:48:25.450Z,19.75
2019-04-11T12:50:56.222Z,26.90
2019-04-11T12:53:22.507Z,22.05
2019-04-11T12:56:02.946Z,19.35
2019-04-11T12:58:30.988Z,19.20
2019-04-11T13:01:05.158Z,16.57
2019-04-11T13:03:49.779Z,14.53
2019-04-11T13:06:35.240Z,22.00
2019-04-11T13:09:13.817Z,24.27
2019-04-11T13:11:44.934Z,22.10
2019-04-11T13:14:25.115Z,18.27
2019-04-11T13:17:08.261Z,26.07
2019-04-11T13:19:36.378Z,23.27
2019-04-11T13:22:05.226Z,24.35
2019-04-11T13:24:36.323Z,20.95
2019-04-11T13:27:13.732Z,20.45
2019-04-11T13:29:44.906Z,22.75
2019-04-11T13:32:28.156Z,21.93
2019-04-11T13:34:59.476Z,21.85
2019-04-11T13:37:44.101Z,25.43
2019-04-11T13:40:12.433Z,26.30
2019-04-11T13:42:56.630Z,24.47
2019-04-11T13:45:24.080Z,24.23
2019-04-11T13:48:08.506Z,23.02
2019-04-11T13:50:35.560Z,20.88
2019-04-11T13:53:20.106Z,25.30
2019-04-11T13:55:46.310Z,22.50
2019-04-11T13:58:32.210Z,22.73
2019-04-11T14:00:58.715Z,23.07
2019-04-11T14:03:38.808Z,23.45
2019-04-11T14:06:09.904Z,24.25
2019-04-11T14:08:41.020Z,26.35
2019-04-11T14:11:09.136Z,24.40
2019-04-11T14:13:40.031Z,22.87
2019-04-11T14:16:10.157Z,51.30
2019-04-11T14:18:41.451Z,88.60
2019-04-11T14:21:17.210Z,42.65
2019-04-11T14:23:51.115Z,25.72
2019-04-11T14:26:21.962Z,27.10
2019-04-11T14:28:49.332Z,23.18
2019-04-11T14:31:33.852Z,22.87
2019-04-11T14:34:18.646Z,27.02
2019-04-11T14:36:49.729Z,22.98
2019-04-11T14:39:17.923Z,20.15
2019-04-11T14:41:59.801Z,22.00
2019-04-11T14:44:27.964Z,22.82
2019-04-11T14:46:56.014Z,20.05
2019-04-11T14:49:22.451Z,22.35
2019-04-11T14:52:06.929Z,23.98
2019-04-11T14:54:35.043Z,21.52
2019-04-11T14:57:03.137Z,22.27
2019-04-11T14:59:34.218Z,22.22
2019-04-11T15:02:11.247Z,21.02
2019-04-11T15:04:43.939Z,19.55
2019-04-11T15:07:12.827Z,21.82
2019-04-11T15:09:58.486Z,24.63
2019-04-11T15:12:26.616Z,22.37
2019-04-11T15:14:57.626Z,23.35
2019-04-11T15:17:26.434Z,22.30
2019-04-11T15:19:55.178Z,22.55
2019-04-11T15:22:35.688Z,21.52
2019-04-11T15:25:14.404Z,22.48
2019-04-11T15:27:54.426Z,19.67
2019-04-11T15:30:22.493Z,21.07
2019-04-11T15:32:50.630Z,23.65
2019-04-11T15:35:16.774Z,22.65
2019-04-11T15:38:01.203Z,21.20
2019-04-11T15:40:27.442Z,22.05
2019-04-11T15:43:12.359Z,20.70
2019-04-11T15:45:40.521Z,19.85
2019-04-11T15:48:25.120Z,17.75
2019-04-11T15:51:10.435Z,20.17
2019-04-11T15:53:47.583Z,21.80
2019-04-11T15:56:32.414Z,21.87
2019-04-11T15:59:12.989Z,21.57
2019-04-11T16:01:48.650Z,22.75
2019-04-11T16:04:28.987Z,21.52
2019-04-11T16:07:12.426Z,21.33
2019-04-11T16:09:43.755Z,20.40
2019-04-11T16:12:18.090Z,21.00
2019-04-11T16:14:44.503Z,21.52
2019-04-11T16:17:24.918Z,19.77
2019-04-11T16:19:53.065Z,18.92
2019-04-11T16:22:24.688Z,17.10
2019-04-11T16:24:51.279Z,20.97
2019-04-11T16:27:19.389Z,19.25
2019-04-11T16:29:47.521Z,16.65
2019-04-11T16:32:14.894Z,18.80
2019-04-11T16:34:48.609Z,18.02
2019-04-11T16:37:17.553Z,21.95
2019-04-11T16:40:00.082Z,21.02
2019-04-11T16:42:28.123Z,19.57
2019-04-11T16:45:08.498Z,18.85
2019-04-11T16:47:48.545Z,20.88
2019-04-11T16:50:15.389Z,20.72
2019-04-11T16:52:41.796Z,18.50
2019-04-11T16:55:10.104Z,17.37
2019-04-11T16:57:36.250Z,21.55
2019-04-11T17:00:09.256Z,18.57
2019-04-11T17:02:35.430Z,20.75
2019-04-11T17:05:01.662Z,21.07
2019-04-11T17:07:46.444Z,20.80
2019-04-11T17:10:14.659Z,20.25
2019-04-11T17:12:40.908Z,20.77
2019-04-11T17:15:08.130Z,20.27
2019-04-11T17:17:34.437Z,17.15
2019-04-11T17:20:00.582Z,20.65
2019-04-11T17:22:28.418Z,20.30
2019-04-11T17:24:54.868Z,19.45
2019-04-11T17:27:23.178Z,20.32
2019-04-11T17:29:49.240Z,20.75
2019-04-11T17:32:15.401Z,21.65
2019-04-11T17:34:41.699Z,20.82
2019-04-11T17:37:07.835Z,18.32
2019-04-11T17:39:36.628Z,17.10
2019-04-11T17:42:02.098Z,16.75
2019-04-11T17:44:28.327Z,18.37
2019-04-11T17:46:56.439Z,19.30
2019-04-11T17:49:22.631Z,19.98
2019-04-11T17:51:55.638Z,21.68
2019-04-11T17:54:16.940Z,21.10
2019-04-11T17:56:43.220Z,23.45
2019-04-11T17:59:12.047Z,27.27
2019-04-11T18:01:38.014Z,26.42
2019-04-11T18:04:04.821Z,23.40
2019-04-11T18:06:30.960Z,25.05
2019-04-11T18:08:57.189Z,24.73
2019-04-11T18:11:25.670Z,22.10
2019-04-11T18:13:51.669Z,22.65
2019-04-11T18:16:17.834Z,23.62
2019-04-11T18:18:44.173Z,21.90
2019-04-11T18:21:10.801Z,20.45
2019-04-11T18:23:37.059Z,20.55
2019-04-11T18:26:04.007Z,20.17
2019-04-11T18:28:30.415Z,18.80
2019-04-11T18:30:56.565Z,20.13
2019-04-11T18:33:22.956Z,19.17
2019-04-11T18:35:49.269Z,19.50
2019-04-11T18:38:15.634Z,19.47
2019-04-11T18:40:42.059Z,18.10
2019-04-11T18:43:08.274Z,18.47
2019-04-11T18:45:34.558Z,17.80
2019-04-11T18:48:01.157Z,18.80
2019-04-11T18:50:28.925Z,18.03
2019-04-11T18:52:59.256Z,18.60
2019-04-11T18:55:23.436Z,18.23
2019-04-11T18:57:49.649Z,16.43
2019-04-11T19:00:18.304Z,16.93
2019-04-11T19:02:44.789Z,16.27
2019-04-11T19:05:13.352Z,16.23
2019-04-11T19:07:42.809Z,15.27
2019-04-11T19:10:08.289Z,16.83
2019-04-11T19:12:34.641Z,15.83
2019-04-11T19:15:00.835Z,14.27
2019-04-11T19:17:27.080Z,18.50
2019-04-11T19:19:53.386Z,16.47
2019-04-11T19:22:23.533Z,16.53
2019-04-11T19:24:47.546Z,17.43
2019-04-11T19:27:14.066Z,16.57
2019-04-11T19:29:42.164Z,16.70
2019-04-11T19:32:08.472Z,17.90
2019-04-11T19:34:35.069Z,15.87
2019-04-11T19:37:03.654Z,16.63
2019-04-11T19:39:29.595Z,15.63
2019-04-11T19:41:55.760Z,14.77
2019-04-11T19:44:21.873Z,15.37
2019-04-11T19:46:48.443Z,15.27
2019-04-11T19:49:16.038Z,15.70
2019-04-11T19:51:42.203Z,15.80
2019-04-11T19:54:08.523Z,16.30
2019-04-11T19:56:36.692Z,17.07
2019-04-11T19:59:03.028Z,15.90
2019-04-11T20:01:29.188Z,16.40
2019-04-11T20:03:55.517Z,16.47
2019-04-11T20:06:21.754Z,16.43
2019-04-11T20:08:47.962Z,15.80
2019-04-11T20:11:14.145Z,15.03
2019-04-11T20:13:40.399Z,15.50
2019-04-11T20:16:06.530Z,15.17
2019-04-11T20:18:32.752Z,16.20
2019-04-11T20:20:58.957Z,16.20
2019-04-11T20:23:25.218Z,16.73
2019-04-11T20:25:51.427Z,16.10
2019-04-11T20:28:19.946Z,15.30
2019-04-11T20:30:45.603Z,14.53
2019-04-11T20:33:11.888Z,14.70
2019-04-11T20:35:40.024Z,15.03
2019-04-11T20:38:06.232Z,14.70
2019-04-11T20:40:33.226Z,15.47
2019-04-11T20:42:59.407Z,15.43
2019-04-11T20:45:28.502Z,14.20
2019-04-11T20:47:55.372Z,15.40
2019-04-11T20:50:21.590Z,15.53
2019-04-11T20:52:47.743Z,13.83
2019-04-11T20:55:13.902Z,15.60
2019-04-11T20:57:41.041Z,14.10
2019-04-11T21:00:12.066Z,14.90
2019-04-11T21:02:35.685Z,14.40
2019-04-11T21:05:02.065Z,15.23
2019-04-11T21:07:31.538Z,15.10
2019-04-11T21:09:56.335Z,14.23
2019-04-11T21:12:22.615Z,14.50
2019-04-11T21:14:48.851Z,13.23
2019-04-11T21:17:15.070Z,13.90
2019-04-11T21:19:41.216Z,13.83
2019-04-11T21:22:07.328Z,14.23
2019-04-11T21:24:33.587Z,12.23
2019-04-11T21:26:59.807Z,13.23
2019-04-11T21:29:30.000Z,12.67
2019-04-11T21:31:54.041Z,12.00
2019-04-11T21:34:20.421Z,14.10
2019-04-11T21:36:46.659Z,13.33
2019-04-11T21:39:12.806Z,12.93
2019-04-11T21:41:38.972Z,13.43
2019-04-11T21:44:06.494Z,15.17
2019-04-11T21:46:37.401Z,15.53
2019-04-11T21:49:01.180Z,13.77
2019-04-11T21:51:27.586Z,13.63
2019-04-11T21:53:53.829Z,13.43
2019-04-11T21:56:19.966Z,13.33
2019-04-11T21:58:49.947Z,13.13
2019-04-11T22:01:15.428Z,12.93
2019-04-11T22:03:41.955Z,12.70
2019-04-11T22:06:08.213Z,12.60
2019-04-11T22:08:35.121Z,12.87
2019-04-11T22:11:03.086Z,12.93
2019-04-11T22:13:29.477Z,12.77
2019-04-11T22:15:55.687Z,12.27
2019-04-11T22:18:22.090Z,11.43
2019-04-11T22:20:48.426Z,10.93
2019-04-11T22:23:14.557Z,11.80
2019-04-11T22:25:40.886Z,11.07
2019-04-11T22:28:07.134Z,11.97
2019-04-11T22:30:33.564Z,13.70
2019-04-11T22:33:01.709Z,12.27
2019-04-11T22:35:28.998Z,12.60
2019-04-11T22:37:59.670Z,11.77
2019-04-11T22:40:23.704Z,11.97
2019-04-11T22:42:50.046Z,12.50
2019-04-11T22:45:16.282Z,12.90
2019-04-11T22:47:42.429Z,14.63
2019-04-11T22:50:10.123Z,14.07
2019-04-11T22:52:36.934Z,13.53
2019-04-11T22:55:04.673Z,13.40
2019-04-11T22:57:30.921Z,12.60
2019-04-11T22:59:57.208Z,13.13
2019-04-11T23:02:28.043Z,14.20
2019-04-11T23:04:54.303Z,12.83
2019-04-11T23:07:20.537Z,14.03
2019-04-11T23:09:48.908Z,13.77
2019-04-11T23:12:15.228Z,14.93
2019-04-11T23:14:45.398Z,13.73
2019-04-11T23:17:11.829Z,13.27
2019-04-11T23:19:38.289Z,13.20
2019-04-11T23:22:04.420Z,13.10
2019-04-11T23:24:30.561Z,12.37
2019-04-11T23:26:56.911Z,12.60
2019-04-11T23:29:23.131Z,13.27
2019-04-11T23:31:50.855Z,13.97
2019-04-11T23:34:19.728Z,12.83
2019-04-11T23:36:45.556Z,13.33
2019-04-11T23:39:11.835Z,12.70
2019-04-11T23:41:38.167Z,13.77
2019-04-11T23:44:04.404Z,13.67
2019-04-11T23:46:30.723Z,12.80
2019-04-11T23:48:56.880Z,12.50
2019-04-11T23:51:26.247Z,12.70
2019-04-11T23:53:51.377Z,13.87
2019-04-11T23:56:17.577Z,14.10
2019-04-11T23:58:43.711Z,14.37
